sensor_id;sensor_type;location;lat;lon;timestamp;pressure;altitude;pressure_sealevel;temperature;humidity
20228;BME280;12195;55.790;37.572;2022-11-27T00:01:36;101500.83;;;-2.45;68.17
20228;BME280;12195;55.790;37.572;2022-11-27T00:04:09;101497.41;;;-2.45;68.21
20228;BME280;12195;55.790;37.572;2022-11-27T00:06:41;101494.00;;;-2.44;68.19
20228;BME280;12195;55.790;37.572;2022-11-27T00:09:13;101494.88;;;-2.44;68.23
20228;BME280;12195;55.790;37.572;2022-11-27T00:11:45;101501.76;;;-2.43;68.27
20228;BME280;12195;55.790;37.572;2022-11-27T00:14:16;101499.23;;;-2.41;68.23
20228;BME280;12195;55.790;37.572;2022-11-27T00:16:47;101498.34;;;-2.42;68.25
20228;BME280;12195;55.790;37.572;2022-11-27T00:19:19;101505.22;;;-2.41;68.23
20228;BME280;12195;55.790;37.572;2022-11-27T00:21:50;101498.44;;;-2.39;68.20
20228;BME280;12195;55.790;37.572;2022-11-27T00:24:20;101505.31;;;-2.38;68.18
20228;BME280;12195;55.790;37.572;2022-11-27T00:26:51;101506.15;;;-2.39;68.17
20228;BME280;12195;55.790;37.572;2022-11-27T00:29:23;101500.17;;;-2.38;68.18
20228;BME280;12195;55.790;37.572;2022-11-27T00:31:55;101505.22;;;-2.41;68.18
20228;BME280;12195;55.790;37.572;2022-11-27T00:34:27;101499.23;;;-2.41;68.24
20228;BME280;12195;55.790;37.572;2022-11-27T00:36:57;101512.19;;;-2.37;68.06
20228;BME280;12195;55.790;37.572;2022-11-27T00:39:29;101509.57;;;-2.38;68.07
20228;BME280;12195;55.790;37.572;2022-11-27T00:42:00;101500.97;;;-2.40;68.03
20228;BME280;12195;55.790;37.572;2022-11-27T00:44:31;101502.70;;;-2.39;67.98
20228;BME280;12195;55.790;37.572;2022-11-27T00:47:03;101503.48;;;-2.42;68.04
20228;BME280;12195;55.790;37.572;2022-11-27T00:49:34;101510.37;;;-2.41;68.05
20228;BME280;12195;55.790;37.572;2022-11-27T00:52:05;101502.59;;;-2.44;68.01
20228;BME280;12195;55.790;37.572;2022-11-27T00:54:35;101499.14;;;-2.44;68.03
20228;BME280;12195;55.790;37.572;2022-11-27T00:57:07;101502.55;;;-2.45;68.07
20228;BME280;12195;55.790;37.572;2022-11-27T00:59:38;101508.55;;;-2.45;68.11
20228;BME280;12195;55.790;37.572;2022-11-27T01:02:09;101501.67;;;-2.46;68.14
20228;BME280;12195;55.790;37.572;2022-11-27T01:04:40;101499.98;;;-2.45;68.17
20228;BME280;12195;55.790;37.572;2022-11-27T01:07:11;101501.76;;;-2.43;68.11
20228;BME280;12195;55.790;37.572;2022-11-27T01:09:42;101506.06;;;-2.42;68.14
20228;BME280;12195;55.790;37.572;2022-11-27T01:12:13;101505.22;;;-2.41;68.21
20228;BME280;12195;55.790;37.572;2022-11-27T01:14:44;101505.22;;;-2.41;68.23
20228;BME280;12195;55.790;37.572;2022-11-27T01:17:16;101502.65;;;-2.41;68.27
20228;BME280;12195;55.790;37.572;2022-11-27T01:19:47;101502.65;;;-2.41;68.22
20228;BME280;12195;55.790;37.572;2022-11-27T01:22:18;101497.55;;;-2.39;68.18
20228;BME280;12195;55.790;37.572;2022-11-27T01:24:49;101491.56;;;-2.40;68.28
20228;BME280;12195;55.790;37.572;2022-11-27T01:27:20;101500.17;;;-2.38;68.22
20228;BME280;12195;55.790;37.572;2022-11-27T01:29:51;101500.17;;;-2.38;68.31
20228;BME280;12195;55.790;37.572;2022-11-27T01:32:22;101507.09;;;-2.35;68.28
20228;BME280;12195;55.790;37.572;2022-11-27T01:34:52;101496.80;;;-2.35;68.24
20228;BME280;12195;55.790;37.572;2022-11-27T01:37:23;101501.95;;;-2.35;68.19
20228;BME280;12195;55.790;37.572;2022-11-27T01:39:55;101502.78;;;-2.36;68.24
20228;BME280;12195;55.790;37.572;2022-11-27T01:42:26;101502.83;;;-2.35;68.30
20228;BME280;12195;55.790;37.572;2022-11-27T01:44:57;101496.89;;;-2.32;68.30
20228;BME280;12195;55.790;37.572;2022-11-27T01:47:33;101502.08;;;-2.31;68.30
20228;BME280;12195;55.790;37.572;2022-11-27T01:50:07;101498.66;;;-2.30;68.31
20228;BME280;12195;55.790;37.572;2022-11-27T01:52:38;101496.98;;;-2.28;68.36
20228;BME280;12195;55.790;37.572;2022-11-27T01:55:18;101508.16;;;-2.27;68.37
20228;BME280;12195;55.790;37.572;2022-11-27T01:57:47;101511.61;;;-2.27;68.41
20228;BME280;12195;55.790;37.572;2022-11-27T02:00:19;101507.36;;;-2.25;68.43
20228;BME280;12195;55.790;37.572;2022-11-27T02:02:50;101506.52;;;-2.24;68.36
20228;BME280;12195;55.790;37.572;2022-11-27T02:05:22;101502.22;;;-2.25;68.32
20228;BME280;12195;55.790;37.572;2022-11-27T02:07:54;101497.03;;;-2.26;68.34
20228;BME280;12195;55.790;37.572;2022-11-27T02:10:39;101499.59;;;-2.26;68.35
20228;BME280;12195;55.790;37.572;2022-11-27T02:13:11;101509.08;;;-2.25;68.34
20228;BME280;12195;55.790;37.572;2022-11-27T02:15:51;101507.36;;;-2.25;68.29
20228;BME280;12195;55.790;37.572;2022-11-27T02:18:24;101503.09;;;-2.24;68.31
20228;BME280;12195;55.790;37.572;2022-11-27T02:21:00;101503.95;;;-2.24;68.28
20228;BME280;12195;55.790;37.572;2022-11-27T02:29:00;101503.95;;;-2.24;68.36
20228;BME280;12195;55.790;37.572;2022-11-27T02:34:31;101504.03;;;-2.21;68.25
20228;BME280;12195;55.790;37.572;2022-11-27T02:36:35;101510.02;;;-2.22;68.25
20228;BME280;12195;55.790;37.572;2022-11-27T02:39:09;101510.91;;;-2.21;68.28
20228;BME280;12195;55.790;37.572;2022-11-27T02:41:42;101511.75;;;-2.21;68.27
20228;BME280;12195;55.790;37.572;2022-11-27T02:44:13;101513.47;;;-2.21;68.29
20228;BME280;12195;55.790;37.572;2022-11-27T02:46:45;101514.41;;;-2.18;68.22
20228;BME280;12195;55.790;37.572;2022-11-27T02:49:18;101519.55;;;-2.18;68.33
20228;BME280;12195;55.790;37.572;2022-11-27T02:51:52;101515.30;;;-2.17;68.38
20228;BME280;12195;55.790;37.572;2022-11-27T02:54:28;101520.45;;;-2.16;68.42
20228;BME280;12195;55.790;37.572;2022-11-27T02:56:55;101525.63;;;-2.14;68.47
20228;BME280;12195;55.790;37.572;2022-11-27T02:59:26;101520.53;;;-2.13;68.61
20228;BME280;12195;55.790;37.572;2022-11-27T03:02:12;101524.03;;;-2.11;68.52
20228;BME280;12195;55.790;37.572;2022-11-27T03:04:33;101533.53;;;-2.08;68.66
20228;BME280;12195;55.790;37.572;2022-11-27T03:07:05;101528.42;;;-2.07;68.64
20228;BME280;12195;55.790;37.572;2022-11-27T03:09:40;101524.08;;;-2.08;68.63
20228;BME280;12195;55.790;37.572;2022-11-27T03:12:11;101524.21;;;-2.03;68.61
20228;BME280;12195;55.790;37.572;2022-11-27T03:14:43;101537.03;;;-2.05;68.52
20228;BME280;12195;55.790;37.572;2022-11-27T03:22:22;101529.27;;;-2.06;68.41
20228;BME280;12195;55.790;37.572;2022-11-27T03:24:55;101531.00;;;-2.05;68.39
20228;BME280;12195;55.790;37.572;2022-11-27T03:27:30;101531.80;;;-2.08;68.52
20228;BME280;12195;55.790;37.572;2022-11-27T03:30:03;101531.80;;;-2.08;68.59
20228;BME280;12195;55.790;37.572;2022-11-27T03:32:33;101531.80;;;-2.08;68.65
20228;BME280;12195;55.790;37.572;2022-11-27T03:35:05;101530.16;;;-2.06;68.70
20228;BME280;12195;55.790;37.572;2022-11-27T03:37:37;101531.05;;;-2.04;68.82
20228;BME280;12195;55.790;37.572;2022-11-27T03:40:08;101531.13;;;-2.01;68.67
20228;BME280;12195;55.790;37.572;2022-11-27T03:45:31;101526.03;;;-1.99;68.79
20228;BME280;12195;55.790;37.572;2022-11-27T03:48:16;101522.66;;;-1.97;68.72
20228;BME280;12195;55.790;37.572;2022-11-27T03:53:30;101518.48;;;-1.92;68.59
20228;BME280;12195;55.790;37.572;2022-11-27T03:58:57;101513.38;;;-1.90;68.59
20228;BME280;12195;55.790;37.572;2022-11-27T04:01:23;101520.30;;;-1.88;68.57
20228;BME280;12195;55.790;37.572;2022-11-27T04:03:55;101516.03;;;-1.87;68.61
20228;BME280;12195;55.790;37.572;2022-11-27T04:06:26;101518.66;;;-1.86;68.68
20228;BME280;12195;55.790;37.572;2022-11-27T04:08:57;101522.11;;;-1.84;68.64
20228;BME280;12195;55.790;37.572;2022-11-27T04:11:28;101521.31;;;-1.81;68.54
20228;BME280;12195;55.790;37.572;2022-11-27T04:14:00;101531.66;;;-1.80;68.52
20228;BME280;12195;55.790;37.572;2022-11-27T04:16:31;101521.44;;;-1.77;68.29
20228;BME280;12195;55.790;37.572;2022-11-27T04:19:02;101530.05;;;-1.76;68.46
20228;BME280;12195;55.790;37.572;2022-11-27T04:21:33;101530.89;;;-1.76;68.61
20228;BME280;12195;55.790;37.572;2022-11-27T04:24:04;101527.48;;;-1.75;68.62
20228;BME280;12195;55.790;37.572;2022-11-27T04:26:35;101530.17;;;-1.70;68.43
20228;BME280;12195;55.790;37.572;2022-11-27T04:29:06;101529.29;;;-1.71;68.32
20228;BME280;12195;55.790;37.572;2022-11-27T04:31:38;101524.14;;;-1.71;68.37
20228;BME280;12195;55.790;37.572;2022-11-27T04:34:09;101523.30;;;-1.71;68.47
20228;BME280;12195;55.790;37.572;2022-11-27T04:36:40;101531.14;;;-1.65;68.37
20228;BME280;12195;55.790;37.572;2022-11-27T04:39:11;101528.65;;;-1.62;68.37
20228;BME280;12195;55.790;37.572;2022-11-27T04:41:42;101544.09;;;-1.62;68.44
20228;BME280;12195;55.790;37.572;2022-11-27T04:44:13;101530.38;;;-1.61;68.42
20228;BME280;12195;55.790;37.572;2022-11-27T04:46:44;101529.58;;;-1.59;68.43
20228;BME280;12195;55.790;37.572;2022-11-27T04:49:16;101540.80;;;-1.57;68.59
20228;BME280;12195;55.790;37.572;2022-11-27T04:51:47;101538.30;;;-1.54;68.51
20228;BME280;12195;55.790;37.572;2022-11-27T04:54:18;101529.81;;;-1.50;68.50
20228;BME280;12195;55.790;37.572;2022-11-27T04:56:48;101531.59;;;-1.47;68.49
20228;BME280;12195;55.790;37.572;2022-11-27T04:59:19;101531.59;;;-1.46;68.57
20228;BME280;12195;55.790;37.572;2022-11-27T05:01:51;101535.09;;;-1.44;68.58
20228;BME280;12195;55.790;37.572;2022-11-27T05:04:22;101532.55;;;-1.42;68.45
20228;BME280;12195;55.790;37.572;2022-11-27T05:06:52;101534.28;;;-1.41;68.57
20228;BME280;12195;55.790;37.572;2022-11-27T05:09:23;101530.94;;;-1.37;68.55
20228;BME280;12195;55.790;37.572;2022-11-27T05:11:54;101533.55;;;-1.36;68.57
20228;BME280;12195;55.790;37.572;2022-11-27T05:14:25;101540.48;;;-1.33;68.54
20228;BME280;12195;55.790;37.572;2022-11-27T05:16:58;101543.17;;;-1.29;68.37
20228;BME280;12195;55.790;37.572;2022-11-27T05:19:29;101543.17;;;-1.27;68.37
20228;BME280;12195;55.790;37.572;2022-11-27T05:22:00;101538.06;;;-1.26;68.31
20228;BME280;12195;55.790;37.572;2022-11-27T05:24:32;101541.56;;;-1.24;68.33
20228;BME280;12195;55.790;37.572;2022-11-27T05:27:03;101539.83;;;-1.25;68.44
20228;BME280;12195;55.790;37.572;2022-11-27T05:29:34;101545.91;;;-1.21;68.36
20228;BME280;12195;55.790;37.572;2022-11-27T05:32:05;101542.48;;;-1.20;68.32
20228;BME280;12195;55.790;37.572;2022-11-27T05:34:36;101547.64;;;-1.20;68.39
20228;BME280;12195;55.790;37.572;2022-11-27T05:37:08;101548.60;;;-1.15;68.35
20228;BME280;12195;55.790;37.572;2022-11-27T05:39:42;101552.87;;;-1.17;68.28
20228;BME280;12195;55.790;37.572;2022-11-27T05:42:13;101551.98;;;-1.18;68.24
20228;BME280;12195;55.790;37.572;2022-11-27T05:44:44;101548.59;;;-1.17;68.24
20228;BME280;12195;55.790;37.572;2022-11-27T05:47:15;101558.91;;;-1.17;68.34
20228;BME280;12195;55.790;37.572;2022-11-27T05:49:47;101557.25;;;-1.13;68.47
20228;BME280;12195;55.790;37.572;2022-11-27T05:52:18;101563.33;;;-1.10;68.57
20228;BME280;12195;55.790;37.572;2022-11-27T05:54:50;101564.25;;;-1.08;68.62
20228;BME280;12195;55.790;37.572;2022-11-27T05:57:21;101557.48;;;-1.03;68.53
20228;BME280;12195;55.790;37.572;2022-11-27T05:59:52;101562.67;;;-1.01;68.40
20228;BME280;12195;55.790;37.572;2022-11-27T06:02:23;101560.98;;;-0.99;68.39
20228;BME280;12195;55.790;37.572;2022-11-27T06:04:56;101562.75;;;-0.98;68.50
20228;BME280;12195;55.790;37.572;2022-11-27T06:07:27;101563.70;;;-0.93;68.52
20228;BME280;12195;55.790;37.572;2022-11-27T06:09:58;101565.48;;;-0.91;68.41
20228;BME280;12195;55.790;37.572;2022-11-27T06:12:30;101565.52;;;-0.89;68.51
20228;BME280;12195;55.790;37.572;2022-11-27T06:15:02;101559.58;;;-0.85;68.52
20228;BME280;12195;55.790;37.572;2022-11-27T06:17:33;101563.92;;;-0.83;68.43
20228;BME280;12195;55.790;37.572;2022-11-27T06:20:05;101561.35;;;-0.83;68.44
20228;BME280;12195;55.790;37.572;2022-11-27T06:22:36;101562.23;;;-0.81;68.57
20228;BME280;12195;55.790;37.572;2022-11-27T06:25:07;101564.00;;;-0.78;68.46
20228;BME280;12195;55.790;37.572;2022-11-27T06:27:39;101556.34;;;-0.75;68.48
20228;BME280;12195;55.790;37.572;2022-11-27T06:30:10;101560.69;;;-0.73;68.50
20228;BME280;12195;55.790;37.572;2022-11-27T06:32:41;101554.71;;;-0.72;68.67
20228;BME280;12195;55.790;37.572;2022-11-27T06:35:12;101565.10;;;-0.67;68.70
20228;BME280;12195;55.790;37.572;2022-11-27T06:37:44;101559.20;;;-0.62;68.62
20228;BME280;12195;55.790;37.572;2022-11-27T06:40:16;101561.81;;;-0.60;68.69
20228;BME280;12195;55.790;37.572;2022-11-27T06:42:47;101556.72;;;-0.57;68.70
20228;BME280;12195;55.790;37.572;2022-11-27T06:45:18;101561.14;;;-0.50;68.46
20228;BME280;12195;55.790;37.572;2022-11-27T06:47:49;101558.63;;;-0.47;68.71
20228;BME280;12195;55.790;37.572;2022-11-27T06:50:20;101551.87;;;-0.41;68.45
20228;BME280;12195;55.790;37.572;2022-11-27T06:52:51;101557.98;;;-0.36;68.55
20228;BME280;12195;55.790;37.572;2022-11-27T06:55:22;101559.78;;;-0.32;68.81
20228;BME280;12195;55.790;37.572;2022-11-27T06:57:53;101564.19;;;-0.26;68.55
20228;BME280;12195;55.790;37.572;2022-11-27T07:00:24;101568.56;;;-0.22;68.77
20228;BME280;12195;55.790;37.572;2022-11-27T07:02:56;101564.35;;;-0.17;68.73
20228;BME280;12195;55.790;37.572;2022-11-27T07:05:27;101568.76;;;-0.12;68.84
20228;BME280;12195;55.790;37.572;2022-11-27T07:07:58;101562.87;;;-0.05;68.58
20228;BME280;12195;55.790;37.572;2022-11-27T07:10:34;101566.39;;;0.00;68.62
20228;BME280;12195;55.790;37.572;2022-11-27T07:13:03;101574.20;;;0.03;68.61
20228;BME280;12195;55.790;37.572;2022-11-27T07:15:34;101571.69;;;0.07;68.58
20228;BME280;12195;55.790;37.572;2022-11-27T07:18:05;101569.11;;;0.07;68.54
20228;BME280;12195;55.790;37.572;2022-11-27T07:20:36;101566.55;;;0.09;68.64
20228;BME280;12195;55.790;37.572;2022-11-27T07:23:07;101576.94;;;0.13;68.69
20228;BME280;12195;55.790;37.572;2022-11-27T07:25:38;101569.25;;;0.16;68.59
20228;BME280;12195;55.790;37.572;2022-11-27T07:28:10;101571.05;;;0.20;68.66
20228;BME280;12195;55.790;37.572;2022-11-27T07:30:43;101565.91;;;0.23;68.69
20228;BME280;12195;55.790;37.572;2022-11-27T07:33:15;101565.11;;;0.27;68.76
20228;BME280;12195;55.790;37.572;2022-11-27T07:35:46;101560.95;;;0.33;68.45
20228;BME280;12195;55.790;37.572;2022-11-27T07:38:17;101560.97;;;0.36;68.36
20228;BME280;12195;55.790;37.572;2022-11-27T07:40:48;101556.74;;;0.40;68.47
20228;BME280;12195;55.790;37.572;2022-11-27T07:43:21;101552.54;;;0.46;68.30
20228;BME280;12195;55.790;37.572;2022-11-27T07:45:52;101558.61;;;0.50;68.36
20228;BME280;12195;55.790;37.572;2022-11-27T07:48:23;101554.38;;;0.55;68.28
20228;BME280;12195;55.790;37.572;2022-11-27T07:50:54;101557.92;;;0.60;68.33
20228;BME280;12195;55.790;37.572;2022-11-27T07:53:25;101561.48;;;0.69;68.05
20228;BME280;12195;55.790;37.572;2022-11-27T07:55:59;101558.95;;;0.72;67.94
20228;BME280;12195;55.790;37.572;2022-11-27T07:58:31;101565.02;;;0.76;67.92
20228;BME280;12195;55.790;37.572;2022-11-27T08:01:12;101569.37;;;0.77;67.93
20228;BME280;12195;55.790;37.572;2022-11-27T08:03:38;101567.66;;;0.79;67.86
20228;BME280;12195;55.790;37.572;2022-11-27T08:06:18;101566.81;;;0.80;67.75
20228;BME280;12195;55.790;37.572;2022-11-27T08:08:50;101561.64;;;0.80;67.84
20228;BME280;12195;55.790;37.572;2022-11-27T08:11:25;101565.11;;;0.80;67.87
20228;BME280;12195;55.790;37.572;2022-11-27T08:13:59;101564.25;;;0.81;68.04
20228;BME280;12195;55.790;37.572;2022-11-27T08:16:31;101567.81;;;0.89;67.94
20228;BME280;12195;55.790;37.572;2022-11-27T08:19:02;101564.42;;;0.93;67.88
20228;BME280;12195;55.790;37.572;2022-11-27T08:21:34;101561.09;;;1.00;68.00
20228;BME280;12195;55.790;37.572;2022-11-27T08:24:05;101555.16;;;1.07;67.87
20228;BME280;12195;55.790;37.572;2022-11-27T08:26:36;101558.69;;;1.14;68.00
20228;BME280;12195;55.790;37.572;2022-11-27T08:29:09;101549.28;;;1.20;68.08
20228;BME280;12195;55.790;37.572;2022-11-27T08:31:49;101558.01;;;1.28;68.15
20228;BME280;12195;55.790;37.572;2022-11-27T08:34:20;101544.27;;;1.32;68.27
20228;BME280;12195;55.790;37.572;2022-11-27T08:36:52;101548.67;;;1.42;68.42
20228;BME280;12195;55.790;37.572;2022-11-27T08:39:23;101556.56;;;1.53;68.32
20228;BME280;12195;55.790;37.572;2022-11-27T08:41:57;101548.06;;;1.63;68.38
20228;BME280;12195;55.790;37.572;2022-11-27T08:44:29;101552.47;;;1.73;67.88
20228;BME280;12195;55.790;37.572;2022-11-27T08:47:00;101545.59;;;1.76;68.02
20228;BME280;12195;55.790;37.572;2022-11-27T08:49:32;101544.80;;;1.82;67.94
20228;BME280;12195;55.790;37.572;2022-11-27T08:52:05;101547.47;;;1.88;67.81
20228;BME280;12195;55.790;37.572;2022-11-27T08:54:36;101546.66;;;1.96;67.65
20228;BME280;12195;55.790;37.572;2022-11-27T08:57:08;101551.00;;;1.99;67.67
20228;BME280;12195;55.790;37.572;2022-11-27T08:59:39;101553.70;;;2.08;67.57
20228;BME280;12195;55.790;37.572;2022-11-27T09:02:11;101552.90;;;2.16;67.33
20228;BME280;12195;55.790;37.572;2022-11-27T09:04:42;101547.77;;;2.21;67.38
20228;BME280;12195;55.790;37.572;2022-11-27T09:07:14;101552.98;;;2.27;67.34
20228;BME280;12195;55.790;37.572;2022-11-27T09:09:45;101553.03;;;2.31;67.39
20228;BME280;12195;55.790;37.572;2022-11-27T09:12:17;101549.63;;;2.37;67.22
20228;BME280;12195;55.790;37.572;2022-11-27T09:14:49;101554.84;;;2.43;67.05
20228;BME280;12195;55.790;37.572;2022-11-27T09:17:20;101546.22;;;2.45;66.97
20228;BME280;12195;55.790;37.572;2022-11-27T09:19:51;101548.81;;;2.45;67.02
20228;BME280;12195;55.790;37.572;2022-11-27T09:22:22;101543.61;;;2.44;67.02
20228;BME280;12195;55.790;37.572;2022-11-27T09:24:54;101542.78;;;2.45;67.08
20228;BME280;12195;55.790;37.572;2022-11-27T09:27:25;101541.92;;;2.46;67.12
20228;BME280;12195;55.790;37.572;2022-11-27T09:29:58;101541.94;;;2.47;67.12
20228;BME280;12195;55.790;37.572;2022-11-27T09:32:30;101541.91;;;2.44;67.01
20228;BME280;12195;55.790;37.572;2022-11-27T09:35:01;101544.50;;;2.44;67.11
20228;BME280;12195;55.790;37.572;2022-11-27T09:37:33;101543.61;;;2.44;67.10
20228;BME280;12195;55.790;37.572;2022-11-27T09:40:05;101541.87;;;2.41;66.94
20228;BME280;12195;55.790;37.572;2022-11-27T09:42:41;101541.86;;;2.40;67.01
20228;BME280;12195;55.790;37.572;2022-11-27T09:45:13;101545.31;;;2.39;66.91
20228;BME280;12195;55.790;37.572;2022-11-27T09:47:48;101538.37;;;2.32;66.89
20228;BME280;12195;55.790;37.572;2022-11-27T09:50:23;101545.27;;;2.31;66.85
20228;BME280;12195;55.790;37.572;2022-11-27T09:52:58;101546.08;;;2.26;66.89
20228;BME280;12195;55.790;37.572;2022-11-27T09:55:31;101543.48;;;2.26;66.94
20228;BME280;12195;55.790;37.572;2022-11-27T10:00:37;101550.39;;;2.24;66.89
20228;BME280;12195;55.790;37.572;2022-11-27T10:03:12;101542.62;;;2.24;66.82
20228;BME280;12195;55.790;37.572;2022-11-27T10:05:52;101542.63;;;2.27;66.92
20228;BME280;12195;55.790;37.572;2022-11-27T10:08:22;101548.73;;;2.32;66.86
20228;BME280;12195;55.790;37.572;2022-11-27T10:16:15;101543.66;;;2.48;66.76
20228;BME280;12195;55.790;37.572;2022-11-27T10:18:48;101551.48;;;2.56;66.60
20228;BME280;12195;55.790;37.572;2022-11-27T10:21:24;101553.28;;;2.64;66.45
20228;BME280;12195;55.790;37.572;2022-11-27T10:23:57;101553.33;;;2.72;66.37
20228;BME280;12195;55.790;37.572;2022-11-27T10:26:28;101555.98;;;2.78;66.43
20228;BME280;12195;55.790;37.572;2022-11-27T10:29:01;101560.34;;;2.86;66.25
20228;BME280;12195;55.790;37.572;2022-11-27T10:31:39;101557.81;;;2.94;66.18
20228;BME280;12195;55.790;37.572;2022-11-27T10:34:19;101553.48;;;2.96;65.83
20228;BME280;12195;55.790;37.572;2022-11-27T10:36:47;101552.63;;;2.98;65.76
20228;BME280;12195;55.790;37.572;2022-11-27T10:39:27;101552.66;;;3.01;65.76
20228;BME280;12195;55.790;37.572;2022-11-27T10:41:54;101550.92;;;3.00;65.55
20228;BME280;12195;55.790;37.572;2022-11-27T10:44:27;101550.90;;;2.97;65.48
20228;BME280;12195;55.790;37.572;2022-11-27T10:47:02;101546.58;;;2.96;65.56
20228;BME280;12195;55.790;37.572;2022-11-27T10:49:34;101552.63;;;2.98;65.67
20228;BME280;12195;55.790;37.572;2022-11-27T10:52:13;101544.88;;;3.03;65.63
20228;BME280;12195;55.790;37.572;2022-11-27T10:54:38;101544.91;;;3.06;65.54
20228;BME280;12195;55.790;37.572;2022-11-27T10:57:13;101547.50;;;3.06;65.54
20228;BME280;12195;55.790;37.572;2022-11-27T11:02:35;101551.77;;;3.01;65.20
20228;BME280;12195;55.790;37.572;2022-11-27T11:10:29;101544.02;;;3.04;65.42
20228;BME280;12195;55.790;37.572;2022-11-27T11:15:50;101558.71;;;3.05;65.24
20228;BME280;12195;55.790;37.572;2022-11-27T11:18:22;101554.36;;;3.01;65.15
20228;BME280;12195;55.790;37.572;2022-11-27T11:20:56;101559.49;;;2.90;65.15
20228;BME280;12195;55.790;37.572;2022-11-27T11:23:38;101555.15;;;2.86;65.23
20228;BME280;12195;55.790;37.572;2022-11-27T11:26:04;101553.38;;;2.81;65.21
20228;BME280;12195;55.790;37.572;2022-11-27T11:28:39;101560.27;;;2.73;65.00
20228;BME280;12195;55.790;37.572;2022-11-27T11:31:15;101558.48;;;2.66;64.88
20228;BME280;12195;55.790;37.572;2022-11-27T11:36:24;101560.98;;;2.52;65.16
20228;BME280;12195;55.790;37.572;2022-11-27T11:38:56;101556.58;;;2.44;64.80
20228;BME280;12195;55.790;37.572;2022-11-27T11:41:36;101562.56;;;2.34;64.92
20228;BME280;12195;55.790;37.572;2022-11-27T11:44:15;101565.11;;;2.28;65.07
20228;BME280;12195;55.790;37.572;2022-11-27T11:46:40;101568.53;;;2.24;65.13
20228;BME280;12195;55.790;37.572;2022-11-27T11:49:17;101562.44;;;2.20;65.14
20228;BME280;12195;55.790;37.572;2022-11-27T11:57:01;101560.67;;;2.16;65.09
20228;BME280;12195;55.790;37.572;2022-11-27T12:05:08;101569.25;;;2.08;65.22
20228;BME280;12195;55.790;37.572;2022-11-27T12:10:16;101558.77;;;1.96;64.93
20228;BME280;12195;55.790;37.572;2022-11-27T12:13:04;101561.23;;;1.84;65.01
20228;BME280;12195;55.790;37.572;2022-11-27T12:15:42;101559.36;;;1.72;65.19
20228;BME280;12195;55.790;37.572;2022-11-27T12:20:54;101570.34;;;1.50;64.96
20228;BME280;12195;55.790;37.572;2022-11-27T12:23:26;101565.86;;;1.36;65.07
20228;BME280;12195;55.790;37.572;2022-11-27T12:26:03;101578.70;;;1.28;65.20
20228;BME280;12195;55.790;37.572;2022-11-27T12:31:40;101582.84;;;1.16;65.34
20228;BME280;12195;55.790;37.572;2022-11-27T12:37:04;101585.26;;;1.04;65.56
20228;BME280;12195;55.790;37.572;2022-11-27T12:45:07;101591.23;;;1.00;65.60
20228;BME280;12195;55.790;37.572;2022-11-27T12:47:43;101590.33;;;0.96;65.69
20228;BME280;12195;55.790;37.572;2022-11-27T12:50:31;101590.28;;;0.93;65.76
20228;BME280;12195;55.790;37.572;2022-11-27T12:53:09;101593.72;;;0.92;65.77
20228;BME280;12195;55.790;37.572;2022-11-27T12:55:37;101591.16;;;0.94;65.86
20228;BME280;12195;55.790;37.572;2022-11-27T12:58:18;101598.77;;;0.83;65.79
20228;BME280;12195;55.790;37.572;2022-11-27T13:00:47;101598.69;;;0.79;65.90
20228;BME280;12195;55.790;37.572;2022-11-27T13:03:24;101592.58;;;0.74;65.99
20228;BME280;12195;55.790;37.572;2022-11-27T13:06:02;101603.78;;;0.73;66.04
20228;BME280;12195;55.790;37.572;2022-11-27T13:08:52;101602.02;;;0.70;66.06
20228;BME280;12195;55.790;37.572;2022-11-27T13:11:30;101600.25;;;0.69;66.16
20228;BME280;12195;55.790;37.572;2022-11-27T13:14:09;101608.80;;;0.65;66.11
20228;BME280;12195;55.790;37.572;2022-11-27T13:16:37;101599.35;;;0.66;66.15
20228;BME280;12195;55.790;37.572;2022-11-27T13:19:13;101600.18;;;0.63;66.19
20228;BME280;12195;55.790;37.572;2022-11-27T13:21:42;101603.64;;;0.65;66.30
20228;BME280;12195;55.790;37.572;2022-11-27T13:24:15;101603.59;;;0.61;66.20
20228;BME280;12195;55.790;37.572;2022-11-27T13:29:27;101602.77;;;0.63;66.39
20228;BME280;12195;55.790;37.572;2022-11-27T13:31:59;101597.48;;;0.57;66.35
20228;BME280;12195;55.790;37.572;2022-11-27T13:34:32;101598.33;;;0.56;66.39
20228;BME280;12195;55.790;37.572;2022-11-27T13:37:05;101599.22;;;0.57;66.44
20228;BME280;12195;55.790;37.572;2022-11-27T13:39:37;101603.50;;;0.56;66.48
20228;BME280;12195;55.790;37.572;2022-11-27T13:44:57;101593.98;;;0.54;66.50
20228;BME280;12195;55.790;37.572;2022-11-27T13:47:17;101595.69;;;0.53;66.59
20228;BME280;12195;55.790;37.572;2022-11-27T13:50:00;101598.27;;;0.53;66.65
20228;BME280;12195;55.790;37.572;2022-11-27T13:52:32;101603.39;;;0.49;66.68
20228;BME280;12195;55.790;37.572;2022-11-27T13:55:05;101611.11;;;0.47;66.73
20228;BME280;12195;55.790;37.572;2022-11-27T13:57:36;101599.84;;;0.42;66.66
20228;BME280;12195;55.790;37.572;2022-11-27T14:00:10;101597.20;;;0.39;66.77
20228;BME280;12195;55.790;37.572;2022-11-27T14:02:45;101603.98;;;0.33;66.73
20228;BME280;12195;55.790;37.572;2022-11-27T14:05:19;101603.13;;;0.34;66.88
20228;BME280;12195;55.790;37.572;2022-11-27T14:07:51;101607.32;;;0.27;66.89
20228;BME280;12195;55.790;37.572;2022-11-27T14:10:25;101609.02;;;0.27;66.94
20228;BME280;12195;55.790;37.572;2022-11-27T14:13:09;101615.95;;;0.28;67.00
20228;BME280;12195;55.790;37.572;2022-11-27T14:15:35;101603.86;;;0.27;67.05
20228;BME280;12195;55.790;37.572;2022-11-27T14:18:17;101609.02;;;0.27;67.08
20228;BME280;12195;55.790;37.572;2022-11-27T14:20:50;101611.61;;;0.25;67.16
20228;BME280;12195;55.790;37.572;2022-11-27T14:23:26;101603.83;;;0.24;67.20
20228;BME280;12195;55.790;37.572;2022-11-27T14:26:17;101612.52;;;0.29;67.30
20228;BME280;12195;55.790;37.572;2022-11-27T14:28:41;101615.98;;;0.31;67.39